Time;durP1;ratioP1;P1;durP2;ratioP2;P2;SDS_P1;SDS_P2;PMS_P1;PMS_P2;Temp;Humidity;BMP_temperature;BMP_pressure;BME280_temperature;BME280_humidity;BME280_pressure;Samples;Min_cycle;Max_cycle;Signal;HPM_P1;HPM_P2
2023/05/01 00:01:47;;;;;;;10.70;4.17;;;;;;;4.83;90.06;101616.78;5114269;28;20447;-67
2023/05/01 00:04:14;;;;;;;16.73;4.30;;;;;;;4.87;88.81;101623.31;5113812;28;20475;-67
2023/05/01 00:06:40;;;;;;;13.67;4.60;;;;;;;4.80;88.35;101620.75;5114085;28;20836;-67
2023/05/01 00:09:07;;;;;;;11.93;4.63;;;;;;;4.63;87.53;101616.34;5113840;28;20969;-67
2023/05/01 00:11:34;;;;;;;10.93;4.27;;;;;;;4.72;85.99;101613.06;5113745;28;20567;-67
2023/05/01 00:14:02;;;;;;;10.80;4.47;;;;;;;4.60;87.22;101612.25;5114037;28;20442;-67
2023/05/01 00:16:29;;;;;;;8.37;3.83;;;;;;;4.58;87.53;101609.00;5113956;28;20463;-67
2023/05/01 00:18:56;;;;;;;9.50;4.47;;;;;;;4.57;87.02;101611.94;5113985;28;20475;-67
2023/05/01 00:21:22;;;;;;;12.40;4.40;;;;;;;4.49;87.12;101613.09;5113635;28;20471;-67
2023/05/01 00:23:49;;;;;;;12.13;4.77;;;;;;;4.55;86.17;101612.16;5113668;28;20960;-67
2023/05/01 00:26:16;;;;;;;11.03;5.27;;;;;;;4.52;88.11;101609.97;5113464;28;20491;-67
2023/05/01 00:28:42;;;;;;;10.53;5.23;;;;;;;4.42;88.28;101615.88;5113570;28;20805;-67
2023/05/01 00:31:10;;;;;;;21.33;5.43;;;;;;;4.37;88.06;101607.72;5113448;28;20570;-67
2023/05/01 00:33:37;;;;;;;15.70;5.47;;;;;;;4.41;89.47;101614.25;5113242;28;20472;-67
2023/05/01 00:36:04;;;;;;;11.33;5.30;;;;;;;4.51;89.63;101608.31;5113388;28;20554;-68
2023/05/01 00:38:30;;;;;;;12.13;5.10;;;;;;;4.48;90.24;101601.56;5113763;28;20534;-68
2023/05/01 00:40:57;;;;;;;12.27;5.27;;;;;;;4.33;91.86;101611.13;5113909;28;20435;-67
2023/05/01 00:43:24;;;;;;;11.17;4.50;;;;;;;4.42;91.68;101598.97;5113673;28;20447;-68
2023/05/01 00:45:50;;;;;;;17.13;5.13;;;;;;;4.43;91.24;101592.59;5113612;28;20502;-68
2023/05/01 00:48:18;;;;;;;10.57;4.23;;;;;;;4.41;91.29;101592.00;5113656;28;20482;-67
2023/05/01 00:50:46;;;;;;;14.87;4.70;;;;;;;4.51;90.61;101592.19;5113807;28;20479;-68
2023/05/01 00:53:12;;;;;;;18.33;5.17;;;;;;;4.39;91.23;101592.25;5113567;28;20546;-68
2023/05/01 00:55:41;;;;;;;11.13;5.20;;;;;;;4.45;90.39;101582.44;5113791;28;20462;-68
2023/05/01 00:58:09;;;;;;;15.33;4.97;;;;;;;4.42;91.01;101585.56;5113466;28;20447;-67
2023/05/01 01:00:36;;;;;;;9.77;4.83;;;;;;;4.34;91.31;101580.56;5113688;28;20435;-67
2023/05/01 01:03:04;;;;;;;9.97;4.73;;;;;;;4.36;91.33;101573.13;5113163;28;21005;-68
2023/05/01 01:05:40;;;;;;;10.87;4.93;;;;;;;4.47;90.03;101575.78;5113378;28;20467;-68
2023/05/01 01:08:16;;;;;;;12.13;6.03;;;;;;;4.42;90.00;101578.34;5113454;28;20511;-68
2023/05/01 01:10:50;;;;;;;10.30;4.50;;;;;;;4.42;89.46;101575.66;5113359;28;20467;-68
2023/05/01 01:13:26;;;;;;;15.07;5.70;;;;;;;4.42;89.44;101581.03;5113445;28;20426;-68
2023/05/01 01:15:59;;;;;;;12.50;5.93;;;;;;;4.45;89.84;101579.75;5113276;28;20534;-68
2023/05/01 01:18:34;;;;;;;9.60;4.70;;;;;;;4.44;89.99;101570.06;5113097;28;20928;-68
2023/05/01 01:21:08;;;;;;;20.53;5.70;;;;;;;4.40;89.41;101575.09;5113371;28;20472;-68
2023/05/01 01:23:49;;;;;;;11.53;4.97;;;;;;;4.22;89.45;101564.50;5113028;28;20928;-68
2023/05/01 01:26:37;;;;;;;11.43;5.10;;;;;;;4.27;89.93;101562.75;5112928;28;20475;-67
2023/05/01 01:29:40;;;;;;;15.73;6.00;;;;;;;4.10;89.87;101574.41;5113295;28;20430;-67
2023/05/01 01:32:17;;;;;;;11.00;5.20;;;;;;;3.90;90.35;101572.91;5103050;27;20842;-68
2023/05/01 01:34:49;;;;;;;19.37;5.37;;;;;;;3.94;90.06;101570.53;5113082;28;20454;-68
2023/05/01 01:37:22;;;;;;;16.30;6.50;;;;;;;3.86;90.59;101569.03;5113253;28;20424;-68
2023/05/01 01:39:54;;;;;;;14.47;5.90;;;;;;;3.82;90.89;101567.06;5112509;28;20423;-68
2023/05/01 01:42:26;;;;;;;17.43;4.90;;;;;;;3.80;90.27;101560.03;5112813;28;21004;-68
2023/05/01 01:44:56;;;;;;;16.87;5.10;;;;;;;3.80;89.62;101554.69;5112984;28;20905;-68
2023/05/01 01:47:27;;;;;;;12.40;5.43;;;;;;;3.85;90.29;101559.38;5116900;28;20450;-68
2023/05/01 01:49:56;;;;;;;16.37;5.70;;;;;;;3.82;90.43;101559.03;5116913;28;20412;-66
2023/05/01 01:52:26;;;;;;;14.07;5.73;;;;;;;3.91;89.30;101549.59;5116755;27;20483;-68
2023/05/01 01:54:57;;;;;;;10.60;4.77;;;;;;;3.88;90.26;101555.41;5116517;27;20500;-68
2023/05/01 01:57:25;;;;;;;14.23;5.80;;;;;;;3.74;90.13;101550.25;5116719;28;20427;-68
2023/05/01 01:59:53;;;;;;;16.90;6.07;;;;;;;3.83;89.36;101548.06;5116669;28;20431;-68
2023/05/01 02:02:21;;;;;;;18.87;6.13;;;;;;;3.66;92.54;101542.56;5116619;28;20485;-67
2023/05/01 02:04:49;;;;;;;14.47;5.17;;;;;;;3.68;93.46;101543.16;5116190;28;20442;-67
2023/05/01 02:07:19;;;;;;;19.27;6.23;;;;;;;3.89;91.89;101539.06;5116454;28;20448;-67
2023/05/01 02:09:48;;;;;;;12.43;5.13;;;;;;;3.77;92.59;101535.59;5116465;28;20443;-67
2023/05/01 02:12:17;;;;;;;17.93;5.50;;;;;;;3.74;92.79;101522.66;5116246;28;20479;-67
2023/05/01 02:14:45;;;;;;;9.63;4.47;;;;;;;3.89;92.42;101532.91;5116269;27;20450;-67
2023/05/01 02:17:15;;;;;;;11.77;5.63;;;;;;;3.82;93.02;101529.53;5115894;28;20531;-67
2023/05/01 02:19:43;;;;;;;11.60;6.27;;;;;;;3.85;92.18;101529.06;5116084;28;20820;-67
2023/05/01 02:22:12;;;;;;;15.93;5.50;;;;;;;3.84;92.70;101524.75;5116128;28;20489;-67
2023/05/01 02:24:43;;;;;;;12.80;5.60;;;;;;;3.88;92.61;101515.19;5116097;28;20538;-67
2023/05/01 02:27:15;;;;;;;16.53;5.63;;;;;;;3.92;92.53;101513.69;5116200;28;20850;-67
2023/05/01 02:29:42;;;;;;;12.80;5.80;;;;;;;3.87;92.98;101510.91;5116169;28;20456;-67
2023/05/01 02:32:08;;;;;;;17.07;5.50;;;;;;;3.93;92.14;101509.94;5115679;28;20483;-67
2023/05/01 02:34:35;;;;;;;17.03;7.10;;;;;;;3.94;92.63;101506.22;5115791;28;20522;-67
2023/05/01 02:37:02;;;;;;;13.47;5.33;;;;;;;3.93;92.84;101510.75;5116039;28;20424;-67
2023/05/01 02:39:29;;;;;;;15.93;4.90;;;;;;;3.83;94.22;101509.72;5115528;28;20479;-68
2023/05/01 02:42:02;;;;;;;11.97;4.77;;;;;;;3.87;93.60;101505.53;5115820;28;20530;-67
2023/05/01 02:44:32;;;;;;;14.43;5.40;;;;;;;3.86;93.29;101498.56;5115781;28;20838;-68
2023/05/01 02:47:00;;;;;;;15.23;6.17;;;;;;;3.85;93.38;101503.09;5115406;28;21057;-67
2023/05/01 02:49:28;;;;;;;15.87;5.43;;;;;;;3.70;92.77;101503.53;5115437;28;20470;-67
2023/05/01 02:51:56;;;;;;;12.73;5.47;;;;;;;3.73;92.12;101495.06;5115521;28;20859;-67
2023/05/01 02:54:23;;;;;;;11.40;4.93;;;;;;;3.64;91.02;101488.41;5115299;28;20950;-67
2023/05/01 02:56:50;;;;;;;12.57;6.27;;;;;;;3.80;89.76;101493.06;5115073;28;20502;-67
2023/05/01 02:59:18;;;;;;;9.03;4.07;;;;;;;3.77;90.17;101474.78;5115539;28;20518;-67
2023/05/01 03:01:44;;;;;;;15.93;5.00;;;;;;;3.75;90.77;101474.19;5115439;28;20472;-67
2023/05/01 03:04:11;;;;;;;15.53;5.67;;;;;;;3.70;90.81;101474.06;5115128;28;20470;-67
2023/05/01 03:06:38;;;;;;;13.60;5.87;;;;;;;3.67;91.48;101473.72;5114971;28;20542;-67
2023/05/01 03:09:04;;;;;;;13.67;4.87;;;;;;;3.59;91.92;101480.25;5115093;28;20875;-67
2023/05/01 03:11:31;;;;;;;14.20;7.10;;;;;;;3.59;91.46;101468.75;5115204;28;20515;-67
2023/05/01 03:13:57;;;;;;;10.70;4.43;;;;;;;3.49;92.36;101462.06;5115195;28;20446;-67
2023/05/01 03:16:25;;;;;;;13.40;5.87;;;;;;;3.65;92.11;101465.94;5115106;28;20541;-67
2023/05/01 03:18:52;;;;;;;11.33;5.00;;;;;;;3.69;93.22;101460.94;5115126;28;20467;-67
2023/05/01 03:21:18;;;;;;;14.07;5.80;;;;;;;3.71;93.69;101459.63;5115143;28;20443;-67
2023/05/01 03:23:45;;;;;;;16.17;5.57;;;;;;;3.71;94.70;101462.31;5115066;28;20438;-67
2023/05/01 03:26:12;;;;;;;12.27;5.47;;;;;;;3.71;94.91;101458.81;5114941;28;20549;-67
2023/05/01 03:28:39;;;;;;;11.60;4.60;;;;;;;3.75;95.16;101460.78;5114993;28;20811;-67
2023/05/01 03:31:05;;;;;;;10.07;5.10;;;;;;;3.76;95.01;101451.72;5114792;27;20526;-67
2023/05/01 03:33:33;;;;;;;10.80;5.03;;;;;;;3.88;94.66;101456.25;5114840;28;20471;-67
2023/05/01 03:36:02;;;;;;;10.90;5.47;;;;;;;3.89;94.82;101455.19;5114425;28;20517;-67
2023/05/01 03:38:29;;;;;;;11.63;5.10;;;;;;;3.87;94.62;101458.13;5114742;27;20550;-67
2023/05/01 03:40:56;;;;;;;10.23;4.33;;;;;;;3.85;94.84;101460.22;5114360;28;20444;-68
2023/05/01 03:43:23;;;;;;;9.43;4.40;;;;;;;3.83;95.50;101459.63;5114702;28;20485;-68
2023/05/01 03:45:50;;;;;;;11.83;4.90;;;;;;;3.87;95.51;101458.13;5114529;28;20815;-68
2023/05/01 03:48:17;;;;;;;19.47;5.47;;;;;;;3.84;95.79;101460.44;5114499;28;20436;-68
2023/05/01 03:50:45;;;;;;;9.10;4.00;;;;;;;3.85;95.72;101457.53;5114495;28;20996;-67
2023/05/01 03:53:12;;;;;;;11.43;4.70;;;;;;;3.79;96.09;101456.59;5114345;28;20533;-67
2023/05/01 03:55:38;;;;;;;10.60;5.43;;;;;;;3.86;95.36;101455.69;5114341;28;20514;-68
2023/05/01 03:58:05;;;;;;;10.07;4.80;;;;;;;3.87;95.38;101454.63;5114356;28;20451;-67
2023/05/01 04:00:32;;;;;;;10.57;4.60;;;;;;;3.86;96.07;101450.31;5114357;28;20443;-67
2023/05/01 04:02:59;;;;;;;19.17;4.70;;;;;;;3.82;93.39;101451.84;5114278;28;20518;-67
2023/05/01 04:05:26;;;;;;;10.80;4.20;;;;;;;3.76;93.27;101451.72;5114169;28;20506;-67
2023/05/01 04:07:54;;;;;;;12.30;4.60;;;;;;;3.83;92.06;101446.22;5113482;28;20446;-67
2023/05/01 04:10:20;;;;;;;12.57;4.90;;;;;;;3.88;91.93;101448.22;5115717;28;20862;-67
2023/05/01 04:12:47;;;;;;;11.70;4.57;;;;;;;3.77;91.86;101449.88;5113991;28;20489;-67
2023/05/01 04:15:13;;;;;;;11.50;4.90;;;;;;;3.71;94.16;101445.41;5113904;28;20498;-67
2023/05/01 04:17:42;;;;;;;10.73;4.47;;;;;;;3.74;92.82;101451.13;5113727;28;20478;-68
2023/05/01 04:20:10;;;;;;;9.90;4.10;;;;;;;3.74;93.39;101440.41;5113664;28;20942;-67
2023/05/01 04:22:37;;;;;;;9.47;4.10;;;;;;;3.86;93.25;101442.28;5113646;28;20445;-67
2023/05/01 04:25:06;;;;;;;9.27;4.40;;;;;;;3.81;92.39;101445.66;5113859;28;20475;-68
2023/05/01 04:27:33;;;;;;;9.40;4.13;;;;;;;3.88;93.28;101432.13;5113895;28;20447;-68
2023/05/01 04:29:59;;;;;;;11.40;4.73;;;;;;;3.90;95.98;101435.41;5113837;28;20439;-68
2023/05/01 04:32:26;;;;;;;10.27;4.50;;;;;;;4.00;96.36;101431.06;5113750;28;20515;-68
2023/05/01 04:34:52;;;;;;;10.20;4.17;;;;;;;4.17;96.58;101446.41;5113522;28;20557;-67
2023/05/01 04:37:19;;;;;;;12.67;4.53;;;;;;;4.25;96.87;101432.63;5113734;28;20494;-68
2023/05/01 04:39:46;;;;;;;8.63;4.27;;;;;;;4.27;98.19;101431.34;5113645;28;20478;-68
2023/05/01 04:42:13;;;;;;;10.23;4.20;;;;;;;4.46;97.44;101433.84;5113709;28;20467;-68
2023/05/01 04:44:40;;;;;;;11.37;4.40;;;;;;;4.54;97.80;101425.41;5113581;28;20515;-67
2023/05/01 04:47:07;;;;;;;11.60;4.20;;;;;;;4.58;98.46;101421.19;5113814;28;20439;-67
2023/05/01 04:49:33;;;;;;;13.40;4.47;;;;;;;4.69;99.12;101423.03;5113622;28;20466;-67
2023/05/01 04:52:00;;;;;;;13.33;5.03;;;;;;;4.80;99.23;101414.09;5113178;28;20487;-67
2023/05/01 04:54:26;;;;;;;9.30;3.90;;;;;;;4.83;100.00;101418.16;5113541;28;20531;-67
2023/05/01 04:56:53;;;;;;;11.57;3.70;;;;;;;5.03;99.62;101423.06;5113453;28;20487;-67
2023/05/01 04:59:21;;;;;;;7.43;2.70;;;;;;;5.11;100.00;101419.97;5113201;28;20439;-67
2023/05/01 05:01:47;;;;;;;9.30;3.83;;;;;;;5.21;100.00;101417.44;5113149;28;20881;-66
2023/05/01 05:04:14;;;;;;;8.27;3.43;;;;;;;5.46;99.74;101418.91;5113480;28;20519;-67
2023/05/01 05:06:41;;;;;;;11.03;3.87;;;;;;;5.64;99.12;101417.81;5113035;28;20480;-67
2023/05/01 05:09:08;;;;;;;19.23;3.50;;;;;;;5.77;98.26;101426.34;5113144;28;20435;-67
2023/05/01 05:11:34;;;;;;;12.97;4.10;;;;;;;5.92;97.67;101415.00;5113583;28;20432;-67
2023/05/01 05:14:01;;;;;;;8.93;3.50;;;;;;;6.13;96.50;101416.06;5113396;28;20479;-68
2023/05/01 05:16:29;;;;;;;9.33;3.67;;;;;;;6.27;94.66;101417.31;5113430;28;20459;-68
2023/05/01 05:18:56;;;;;;;7.50;2.70;;;;;;;6.44;93.01;101409.16;5113639;28;20530;-68
2023/05/01 05:21:23;;;;;;;13.20;4.00;;;;;;;6.57;90.84;101418.72;5117393;28;20434;-67
2023/05/01 05:23:49;;;;;;;10.27;3.27;;;;;;;6.69;88.26;101414.00;5117455;28;20526;-67
2023/05/01 05:26:16;;;;;;;9.47;3.57;;;;;;;6.88;87.39;101405.56;5117268;28;20477;-67
2023/05/01 05:28:44;;;;;;;8.17;2.97;;;;;;;7.04;85.80;101410.00;5116841;28;21096;-67
2023/05/01 05:31:10;;;;;;;9.63;3.43;;;;;;;7.17;84.63;101404.19;5117062;28;20451;-67
2023/05/01 05:33:38;;;;;;;6.87;2.70;;;;;;;7.25;83.05;101406.38;5117048;28;20510;-67
2023/05/01 05:36:05;;;;;;;8.10;3.07;;;;;;;7.38;82.91;101402.44;5116697;27;20470;-67
2023/05/01 05:38:32;;;;;;;10.50;2.93;;;;;;;7.55;82.27;101397.69;5116807;28;20930;-67
2023/05/01 05:40:59;;;;;;;13.13;3.83;;;;;;;7.70;81.22;101399.69;5117050;28;20431;-67
2023/05/01 05:43:26;;;;;;;7.77;2.87;;;;;;;7.85;80.17;101398.94;5116926;28;20942;-67
2023/05/01 05:45:56;;;;;;;11.60;2.80;;;;;;;8.03;78.67;101394.97;5116882;27;20808;-67
2023/05/01 05:48:23;;;;;;;9.77;3.13;;;;;;;8.20;76.61;101395.56;5116565;28;20493;-67
2023/05/01 05:50:51;;;;;;;7.70;2.50;;;;;;;8.35;75.42;101387.50;5116904;28;20484;-67
2023/05/01 05:53:18;;;;;;;8.73;3.00;;;;;;;8.52;74.18;101390.00;5116714;28;20841;-67
2023/05/01 05:55:46;;;;;;;6.60;2.50;;;;;;;8.68;73.03;101390.88;5116410;28;20490;-67
2023/05/01 05:58:18;;;;;;;8.80;3.63;;;;;;;8.84;72.36;101383.56;5116743;28;20486;-67
2023/05/01 06:00:46;;;;;;;11.37;3.70;;;;;;;8.90;71.02;101392.47;5116446;28;20434;-67
2023/05/01 06:03:13;;;;;;;8.93;3.63;;;;;;;9.07;71.43;101384.91;5116501;28;20450;-68
2023/05/01 06:05:39;;;;;;;8.10;2.80;;;;;;;9.18;70.07;101383.84;5116421;28;20491;-67
2023/05/01 06:08:09;;;;;;;9.80;3.50;;;;;;;9.33;68.80;101386.50;5116413;28;20514;-67
2023/05/01 06:10:35;;;;;;;6.33;2.20;;;;;;;9.47;67.96;101388.66;5116500;28;20487;-67
2023/05/01 06:13:02;;;;;;;9.90;3.40;;;;;;;9.61;66.50;101387.03;5116326;28;20482;-67
2023/05/01 06:15:29;;;;;;;8.63;3.03;;;;;;;9.71;66.31;101386.97;5116258;28;20466;-67
2023/05/01 06:17:56;;;;;;;10.97;3.10;;;;;;;9.84;64.76;101393.72;5116622;28;20538;-68
2023/05/01 06:20:23;;;;;;;8.67;2.43;;;;;;;10.00;64.33;101394.44;5116330;28;20435;-67
2023/05/01 06:22:49;;;;;;;10.47;3.00;;;;;;;10.09;62.86;101387.38;5116164;28;20955;-67
2023/05/01 06:25:18;;;;;;;8.03;2.57;;;;;;;10.16;60.97;101387.88;5116086;28;20478;-68
2023/05/01 06:27:44;;;;;;;6.70;2.20;;;;;;;10.20;59.55;101383.53;5116148;28;20794;-68
2023/05/01 06:30:11;;;;;;;7.27;2.63;;;;;;;10.35;57.76;101391.59;5116016;28;20443;-67
2023/05/01 06:32:38;;;;;;;10.10;2.90;;;;;;;10.48;58.71;101386.66;5115170;28;20475;-67
2023/05/01 06:35:05;;;;;;;7.30;2.37;;;;;;;10.54;58.37;101390.97;5115744;28;20917;-68
2023/05/01 06:37:32;;;;;;;6.90;1.83;;;;;;;10.53;58.98;101384.72;5115667;28;20500;-68
2023/05/01 06:39:59;;;;;;;7.33;2.30;;;;;;;10.63;57.42;101394.69;5115913;28;20471;-68
2023/05/01 06:42:27;;;;;;;7.53;2.37;;;;;;;10.70;57.96;101391.66;5115803;28;20427;-67
2023/05/01 06:44:53;;;;;;;10.80;2.50;;;;;;;10.80;58.03;101395.13;5115709;28;20467;-68
2023/05/01 06:47:21;;;;;;;6.43;2.50;;;;;;;10.91;57.69;101390.41;5115622;28;20446;-69
2023/05/01 06:49:47;;;;;;;6.43;2.10;;;;;;;11.01;57.39;101387.63;5115531;28;20446;-70
2023/05/01 06:52:14;;;;;;;8.73;1.97;;;;;;;11.17;57.07;101379.38;5115616;28;20522;-67
2023/05/01 06:54:40;;;;;;;6.30;2.27;;;;;;;11.30;57.50;101381.41;5115596;28;20817;-68
2023/05/01 06:57:07;;;;;;;6.43;2.33;;;;;;;11.35;56.27;101384.88;5115616;28;20459;-67
2023/05/01 06:59:35;;;;;;;8.80;2.80;;;;;;;11.47;56.36;101380.97;5115561;28;20527;-67
2023/05/01 07:02:01;;;;;;;6.93;2.23;;;;;;;11.59;55.22;101379.47;5115422;28;20969;-67
2023/05/01 07:04:28;;;;;;;6.50;2.23;;;;;;;11.70;54.52;101372.03;5116018;28;20438;-67
2023/05/01 07:06:55;;;;;;;7.03;2.47;;;;;;;11.71;54.70;101379.06;5115254;28;20506;-67
2023/05/01 07:09:21;;;;;;;6.10;2.07;;;;;;;11.88;54.10;101377.84;5115213;28;20439;-67
2023/05/01 07:11:48;;;;;;;14.63;2.80;;;;;;;12.07;52.88;101376.75;5114940;27;20443;-67
2023/05/01 07:14:15;;;;;;;7.57;2.20;;;;;;;12.24;53.79;101364.59;5115052;27;20479;-67
2023/05/01 07:16:42;;;;;;;17.13;2.80;;;;;;;12.33;53.52;101370.97;5115032;28;20585;-67
2023/05/01 07:19:10;;;;;;;6.10;1.63;;;;;;;12.47;52.80;101366.44;5115060;27;20443;-67
2023/05/01 07:21:37;;;;;;;6.30;2.17;;;;;;;12.65;53.15;101369.44;5114619;28;20802;-67
2023/05/01 07:24:04;;;;;;;7.10;2.20;;;;;;;12.72;53.33;101367.97;5114839;28;20436;-67
2023/05/01 07:26:31;;;;;;;6.10;1.83;;;;;;;12.80;53.42;101372.72;5114824;28;20460;-67
2023/05/01 07:28:57;;;;;;;7.30;2.27;;;;;;;12.90;53.40;101362.78;5114848;28;20446;-67
2023/05/01 07:31:24;;;;;;;8.33;2.60;;;;;;;13.01;52.06;101351.44;5114451;28;20982;-67
2023/05/01 07:33:52;;;;;;;9.83;2.43;;;;;;;13.09;52.18;101352.66;5114268;28;20993;-68
2023/05/01 07:36:20;;;;;;;10.47;2.13;;;;;;;13.13;51.56;101350.97;5114183;28;20509;-71
2023/05/01 07:38:47;;;;;;;6.97;1.93;;;;;;;13.22;51.92;101351.06;5114735;28;20455;-67
2023/05/01 07:41:14;;;;;;;6.00;1.90;;;;;;;13.29;51.64;101348.81;5114410;28;20953;-68
2023/05/01 07:43:41;;;;;;;7.10;2.07;;;;;;;13.36;51.68;101352.72;5114604;27;20874;-67
2023/05/01 07:46:07;;;;;;;6.70;2.20;;;;;;;13.42;52.29;101352.66;5114470;28;20458;-68
2023/05/01 07:48:34;;;;;;;7.17;1.83;;;;;;;13.53;52.10;101351.34;5114545;28;20535;-67
2023/05/01 07:51:03;;;;;;;6.47;2.00;;;;;;;13.59;51.53;101345.50;5114215;28;20451;-68
2023/05/01 07:53:30;;;;;;;5.67;1.87;;;;;;;13.67;51.28;101341.25;5114047;28;20853;-68
2023/05/01 07:56:05;;;;;;;8.47;2.30;;;;;;;13.58;51.58;101335.72;5114329;28;20463;-69
2023/05/01 07:58:32;;;;;;;7.30;2.20;;;;;;;13.68;51.80;101337.44;5114084;28;20866;-70
2023/05/01 08:00:59;;;;;;;6.10;1.90;;;;;;;13.85;51.22;101334.09;5114014;27;20957;-68
2023/05/01 08:03:28;;;;;;;5.77;1.60;;;;;;;13.96;50.99;101337.41;5114576;28;20432;-68
2023/05/01 08:05:54;;;;;;;7.40;2.47;;;;;;;14.05;50.50;101328.22;5114042;28;20451;-68
2023/05/01 08:08:23;;;;;;;5.50;1.70;;;;;;;14.18;49.28;101329.28;5114124;28;20498;-68
2023/05/01 08:10:51;;;;;;;10.77;2.33;;;;;;;14.24;50.10;101328.06;5113831;28;20440;-68
2023/05/01 08:13:17;;;;;;;10.17;2.20;;;;;;;14.34;48.65;101325.13;5113788;28;20821;-69
2023/05/01 08:15:45;;;;;;;8.00;2.47;;;;;;;14.42;48.27;101318.09;5113722;28;20818;-68
2023/05/01 08:18:18;;;;;;;9.57;2.43;;;;;;;14.49;49.09;101320.44;5113960;28;20547;-69
2023/05/01 08:20:45;;;;;;;8.10;1.73;;;;;;;14.56;49.11;101318.06;5114093;28;20534;-68
2023/05/01 08:23:11;;;;;;;5.57;1.67;;;;;;;14.63;49.47;101319.25;5113950;28;20467;-68
2023/05/01 08:25:40;;;;;;;6.67;2.30;;;;;;;14.79;48.51;101316.16;5113631;28;20525;-69
2023/05/01 08:28:06;;;;;;;7.60;2.20;;;;;;;14.85;49.29;101315.72;5114038;28;20467;-68
2023/05/01 08:30:33;;;;;;;5.57;1.47;;;;;;;14.92;48.40;101314.44;5113715;28;21007;-68
2023/05/01 08:32:59;;;;;;;5.60;1.73;;;;;;;15.00;49.32;101311.78;5113476;28;20475;-68
2023/05/01 08:35:26;;;;;;;8.53;2.33;;;;;;;15.08;49.70;101308.28;5113266;28;20912;-68
2023/05/01 08:37:53;;;;;;;5.40;1.70;;;;;;;15.26;49.26;101313.84;5113634;28;20440;-69
2023/05/01 08:40:20;;;;;;;8.00;1.90;;;;;;;15.23;47.31;101315.28;5113336;28;20439;-68
2023/05/01 08:42:48;;;;;;;5.30;1.30;;;;;;;15.26;47.59;101306.44;5113699;28;20833;-68
2023/05/01 08:45:18;;;;;;;4.97;1.43;;;;;;;15.39;46.94;101310.19;5113275;28;20539;-68
2023/05/01 08:47:46;;;;;;;5.87;1.83;;;;;;;15.43;45.74;101305.72;5113355;28;20447;-68
2023/05/01 08:50:14;;;;;;;6.57;2.03;;;;;;;15.49;45.96;101289.97;5113600;28;20443;-68
2023/05/01 08:52:42;;;;;;;7.03;1.67;;;;;;;15.57;46.53;101297.41;5113650;28;20446;-68
2023/05/01 08:55:12;;;;;;;4.80;1.20;;;;;;;15.65;44.46;101288.47;5117760;28;20571;-68
2023/05/01 08:57:39;;;;;;;6.90;1.60;;;;;;;15.69;43.88;101289.44;5120410;27;20500;-68
2023/05/01 09:00:14;;;;;;;7.77;2.47;;;;;;;15.76;44.21;101278.03;5120170;27;20499;-68
2023/05/01 09:02:43;;;;;;;6.77;1.37;;;;;;;15.83;43.86;101276.44;5120176;27;20451;-68
2023/05/01 09:05:10;;;;;;;5.07;1.30;;;;;;;15.87;44.61;101276.63;5119824;27;21056;-67
2023/05/01 09:07:38;;;;;;;5.60;1.50;;;;;;;15.92;44.84;101273.72;5120115;27;20469;-68
2023/05/01 09:10:06;;;;;;;5.13;1.10;;;;;;;16.03;44.30;101279.69;5120031;27;20444;-68
2023/05/01 09:12:34;;;;;;;7.30;1.30;;;;;;;16.08;43.54;101261.19;5120474;27;20505;-69
2023/05/01 09:15:03;;;;;;;6.37;2.10;;;;;;;16.15;40.82;101266.97;5120353;27;20498;-68
2023/05/01 09:17:32;;;;;;;6.33;1.53;;;;;;;16.13;43.11;101260.25;5120526;27;20446;-69
2023/05/01 09:20:01;;;;;;;5.33;1.47;;;;;;;16.11;43.07;101251.53;5120261;27;20530;-68
2023/05/01 09:22:31;;;;;;;5.77;1.70;;;;;;;16.23;44.19;101242.69;5120190;27;20439;-68
2023/05/01 09:24:57;;;;;;;5.60;1.57;;;;;;;16.41;44.20;101249.75;5119878;27;20993;-68
2023/05/01 09:27:25;;;;;;;8.40;1.63;;;;;;;16.50;44.33;101250.53;5120172;27;20439;-69
2023/05/01 09:29:52;;;;;;;11.57;2.00;;;;;;;16.55;43.71;101244.09;5120085;27;20478;-68
2023/05/01 09:32:20;;;;;;;5.53;1.13;;;;;;;16.65;43.89;101244.56;5120190;27;20450;-68
2023/05/01 09:34:49;;;;;;;5.00;1.27;;;;;;;16.73;43.66;101240.22;5119858;27;20479;-68
2023/05/01 09:37:27;;;;;;;5.33;1.57;;;;;;;16.93;43.31;101237.91;5119888;27;20455;-68
2023/05/01 09:40:04;;;;;;;5.00;1.27;;;;;;;16.91;42.49;101230.03;5120093;27;20430;-68
2023/05/01 09:42:31;;;;;;;8.80;1.70;;;;;;;16.90;40.80;101236.63;5119889;27;20450;-68
2023/05/01 09:44:58;;;;;;;6.10;1.90;;;;;;;16.85;40.17;101225.84;5119765;27;20462;-68
2023/05/01 09:47:26;;;;;;;5.43;1.73;;;;;;;16.84;43.24;101218.78;5120065;27;20443;-68
2023/05/01 09:49:56;;;;;;;7.37;1.67;;;;;;;16.82;40.09;101219.13;5120332;27;20446;-68
2023/05/01 09:52:23;;;;;;;7.73;1.53;;;;;;;16.88;43.25;101206.06;5121014;27;20443;-68
2023/05/01 09:54:50;;;;;;;6.93;2.07;;;;;;;17.06;42.39;101212.25;5119973;27;20521;-68
2023/05/01 09:57:17;;;;;;;5.17;1.70;;;;;;;17.17;39.75;101202.53;5119314;28;20451;-69
2023/05/01 10:00:07;;;;;;;8.53;2.43;;;;;;;17.14;42.52;101195.00;5120791;27;20795;-68
2023/05/01 10:02:33;;;;;;;7.13;1.73;;;;;;;17.24;41.83;101193.81;5121156;27;20511;-68
2023/05/01 10:05:02;;;;;;;6.10;1.80;;;;;;;17.29;42.49;101194.41;5120321;27;20547;-68
2023/05/01 10:07:29;;;;;;;7.20;1.60;;;;;;;17.41;42.14;101193.69;5115514;28;20961;-68
2023/05/01 10:09:56;;;;;;;8.00;2.20;;;;;;;17.45;40.37;101186.44;5099365;27;20440;-68
2023/05/01 10:12:24;;;;;;;8.53;2.33;;;;;;;17.59;41.17;101183.44;5096104;28;20476;-68
2023/05/01 10:14:52;;;;;;;5.93;1.73;;;;;;;17.62;41.21;101180.03;5096333;28;20480;-68
2023/05/01 10:17:19;;;;;;;5.73;1.67;;;;;;;17.60;42.26;101176.81;5099976;28;20456;-68
2023/05/01 10:19:46;;;;;;;8.43;1.23;;;;;;;17.75;42.10;101189.94;5116771;28;20454;-68
2023/05/01 10:22:15;;;;;;;10.27;2.00;;;;;;;17.81;42.20;101177.63;5116192;28;20938;-71
2023/05/01 10:24:43;;;;;;;7.37;2.23;;;;;;;17.94;41.20;101185.91;5116332;28;20446;-68
2023/05/01 10:27:11;;;;;;;6.50;1.90;;;;;;;18.06;39.27;101178.56;5116395;28;20439;-68
2023/05/01 10:29:40;;;;;;;7.60;1.70;;;;;;;18.08;39.60;101179.00;5116435;28;20446;-69
2023/05/01 10:32:08;;;;;;;7.53;1.93;;;;;;;18.14;37.95;101166.69;5116160;28;20432;-68
2023/05/01 10:34:37;;;;;;;6.50;1.70;;;;;;;18.18;40.32;101161.31;5115972;28;20490;-68
2023/05/01 10:37:11;;;;;;;6.83;1.97;;;;;;;18.35;40.58;101155.66;5116106;28;20464;-68
2023/05/01 10:39:39;;;;;;;5.60;2.03;;;;;;;18.48;38.70;101152.94;5116044;28;20523;-69
2023/05/01 10:42:10;;;;;;;9.80;2.30;;;;;;;18.48;40.79;101148.25;5115593;28;20935;-67
2023/05/01 10:44:37;;;;;;;9.07;2.17;;;;;;;18.63;41.09;101139.34;5115832;27;20448;-69
2023/05/01 10:47:41;;;;;;;7.70;2.03;;;;;;;18.75;37.48;101146.03;5115821;28;20526;-68
2023/05/01 10:50:09;;;;;;;6.77;1.90;;;;;;;18.82;40.91;101141.56;5115775;28;20454;-69
2023/05/01 10:53:13;;;;;;;5.90;1.90;;;;;;;18.98;40.40;101125.19;5115877;28;20470;-68
2023/05/01 10:55:42;;;;;;;5.83;2.00;;;;;;;19.17;39.35;101124.63;5115460;28;20522;-69
2023/05/01 10:58:09;;;;;;;7.33;2.10;;;;;;;19.46;40.64;101125.47;5115232;28;20985;-68
2023/05/01 11:00:36;;;;;;;6.77;2.03;;;;;;;19.52;37.46;101126.81;5115733;28;20443;-69
2023/05/01 11:03:39;;;;;;;5.97;1.93;;;;;;;19.60;36.98;101120.38;5115162;28;20522;-69
2023/05/01 11:06:06;;;;;;;8.30;2.70;;;;;;;19.71;37.50;101117.97;5115004;28;20970;-68
2023/05/01 11:08:33;;;;;;;10.10;1.80;;;;;;;19.88;37.01;101112.97;5115615;28;20437;-69
2023/05/01 11:11:50;;;;;;;7.17;1.90;;;;;;;20.14;38.20;101112.47;5115343;28;20446;-68
2023/05/01 11:14:17;;;;;;;6.17;2.17;;;;;;;20.27;36.94;101106.88;5115049;28;20502;-69
2023/05/01 11:16:47;;;;;;;6.00;1.67;;;;;;;20.44;35.39;101108.50;5115199;28;20457;-69
2023/05/01 11:19:51;;;;;;;6.27;2.30;;;;;;;21.04;36.18;101095.41;5115305;28;20446;-69
2023/05/01 11:22:18;;;;;;;8.73;2.13;;;;;;;21.96;34.63;101087.44;5115116;28;20424;-68
2023/05/01 11:24:45;;;;;;;6.20;1.60;;;;;;;22.22;32.75;101097.78;5115033;28;20462;-69
2023/05/01 11:27:17;;;;;;;9.70;2.00;;;;;;;22.68;33.08;101087.50;5114949;28;20443;-73
2023/05/01 11:29:48;;;;;;;6.13;1.80;;;;;;;22.98;31.76;101092.31;5114724;28;20511;-70
2023/05/01 11:32:25;;;;;;;6.70;1.90;;;;;;;22.89;31.54;101087.88;5114597;28;20443;-69
2023/05/01 11:34:52;;;;;;;5.17;1.63;;;;;;;22.45;33.23;101082.03;5114456;28;20556;-69